createdAt,value
2023-01-26T00:00:53.652Z,-0.70
2023-01-26T00:04:55.364Z,-0.80
2023-01-26T00:08:57.486Z,-0.70
2023-01-26T00:12:59.225Z,-0.70
2023-01-26T00:17:00.948Z,-0.80
2023-01-26T00:21:03.744Z,-0.80
2023-01-26T00:25:05.961Z,-0.80
2023-01-26T00:29:08.199Z,-1.00
2023-01-26T00:33:10.099Z,-0.90
2023-01-26T00:37:11.835Z,-0.70
2023-01-26T00:41:32.841Z,-0.70
2023-01-26T00:45:35.572Z,-0.80
2023-01-26T00:49:37.602Z,-0.70
2023-01-26T00:53:39.307Z,-0.70
2023-01-26T00:57:41.251Z,-0.70
2023-01-26T01:01:43.231Z,-0.60
2023-01-26T01:05:45.024Z,-0.60
2023-01-26T01:09:47.011Z,-0.60
2023-01-26T01:13:48.801Z,-0.70
2023-01-26T01:17:50.635Z,-0.70
2023-01-26T01:21:52.350Z,-0.60
2023-01-26T01:25:58.395Z,-0.60
2023-01-26T01:30:00.138Z,-0.60
2023-01-26T01:34:01.889Z,-0.70
2023-01-26T01:38:03.619Z,-0.60
2023-01-26T01:42:05.439Z,-0.70
2023-01-26T01:46:41.322Z,-0.70
2023-01-26T01:50:44.244Z,-0.80
2023-01-26T01:55:08.357Z,-0.70
2023-01-26T01:59:12.971Z,-0.80
2023-01-26T02:03:15.219Z,-0.70
2023-01-26T02:07:17.081Z,-0.70
2023-01-26T02:11:44.796Z,-0.60
2023-01-26T02:15:46.952Z,-0.60
2023-01-26T02:19:58.690Z,-0.70
2023-01-26T02:24:17.303Z,-0.60
2023-01-26T02:28:22.394Z,-0.60
2023-01-26T02:32:24.152Z,-0.60
2023-01-26T02:36:31.619Z,-0.60
2023-01-26T02:40:58.013Z,-0.50
2023-01-26T02:44:59.892Z,-0.40
2023-01-26T02:49:20.099Z,-0.50
2023-01-26T02:53:21.814Z,-0.50
2023-01-26T02:57:23.603Z,-0.40
2023-01-26T03:01:25.252Z,-0.40
2023-01-26T03:05:28.126Z,-0.40
2023-01-26T03:09:29.823Z,-0.40
2023-01-26T03:13:31.932Z,-0.40
2023-01-26T03:17:33.671Z,-0.40
2023-01-26T03:21:54.090Z,-0.40
2023-01-26T03:26:16.035Z,-0.40
2023-01-26T03:30:19.079Z,-0.40
2023-01-26T03:34:21.067Z,-0.30
2023-01-26T03:38:22.847Z,-0.40
2023-01-26T03:42:42.998Z,-0.40
2023-01-26T03:47:03.001Z,-0.40
2023-01-26T03:51:23.239Z,-0.40
2023-01-26T03:55:43.731Z,-0.40
2023-01-26T03:59:45.561Z,-0.30
2023-01-26T04:04:07.861Z,-0.30
2023-01-26T04:08:22.781Z,-0.30
2023-01-26T04:12:24.535Z,-0.30
2023-01-26T04:16:45.129Z,-0.20
2023-01-26T04:21:05.210Z,-0.20
2023-01-26T04:25:09.035Z,-0.20
2023-01-26T04:29:13.062Z,-0.20
2023-01-26T04:33:14.781Z,-0.40
2023-01-26T04:37:16.515Z,-0.30
2023-01-26T04:41:18.271Z,-0.30
2023-01-26T04:45:19.953Z,-0.30
2023-01-26T04:49:21.723Z,-0.50
2023-01-26T04:53:24.142Z,-0.50
2023-01-26T04:57:25.775Z,-0.40
2023-01-26T05:01:27.772Z,-0.30
2023-01-26T05:05:29.485Z,-0.30
2023-01-26T05:09:31.175Z,-0.40
2023-01-26T05:13:33.157Z,-0.30
2023-01-26T05:17:36.079Z,-0.40
2023-01-26T05:21:37.796Z,-0.30
2023-01-26T05:25:39.502Z,-0.40
2023-01-26T05:29:41.148Z,-0.30
2023-01-26T05:33:42.825Z,-0.30
2023-01-26T05:37:45.553Z,-0.30
2023-01-26T05:41:47.235Z,-0.30
2023-01-26T05:45:49.010Z,-0.40
2023-01-26T05:49:50.829Z,-0.30
2023-01-26T05:53:52.541Z,-0.40
2023-01-26T05:57:54.167Z,-0.40
2023-01-26T06:01:57.072Z,-0.30
2023-01-26T06:05:58.754Z,-0.30
2023-01-26T06:10:00.547Z,-0.40
2023-01-26T06:14:02.406Z,-0.30
2023-01-26T06:18:04.241Z,-0.20
2023-01-26T06:22:10.958Z,-0.20
2023-01-26T06:26:12.720Z,-0.20
2023-01-26T06:30:14.562Z,-0.10
2023-01-26T06:34:16.313Z,-0.20
2023-01-26T06:38:17.950Z,-0.20
2023-01-26T06:42:19.604Z,-0.10
2023-01-26T06:46:21.950Z,-0.10
2023-01-26T06:50:26.744Z,-0.20
2023-01-26T06:54:28.386Z,-0.20
2023-01-26T06:58:30.128Z,-0.20
2023-01-26T07:02:31.830Z,-0.10
2023-01-26T07:06:33.535Z,-0.10
2023-01-26T07:10:36.041Z,-0.20
2023-01-26T07:14:37.800Z,-0.20
2023-01-26T07:18:39.705Z,-0.30
2023-01-26T07:22:41.433Z,-0.30
2023-01-26T07:26:43.211Z,-0.20
2023-01-26T07:30:45.051Z,-0.20
2023-01-26T07:34:46.705Z,-0.20
2023-01-26T07:38:48.388Z,-0.20
2023-01-26T07:42:50.348Z,-0.20
2023-01-26T07:46:53.265Z,-0.20
2023-01-26T07:50:57.700Z,-0.10
2023-01-26T07:54:59.310Z,0.00
2023-01-26T07:59:03.575Z,0.10
2023-01-26T08:03:05.982Z,0.20
2023-01-26T08:07:07.687Z,0.10
2023-01-26T08:11:11.140Z,0.00
2023-01-26T08:15:12.855Z,0.10
2023-01-26T08:19:14.656Z,0.10
2023-01-26T08:23:16.311Z,0.10
2023-01-26T08:27:18.143Z,0.20
2023-01-26T08:31:21.471Z,0.10
2023-01-26T08:35:23.244Z,0.00
2023-01-26T08:39:24.928Z,0.10
2023-01-26T08:43:27.041Z,0.20
2023-01-26T08:47:28.741Z,0.10
2023-01-26T08:51:30.763Z,0.20
2023-01-26T08:55:33.726Z,0.20
2023-01-26T08:59:35.419Z,0.20
2023-01-26T09:03:37.665Z,0.20
2023-01-26T09:07:39.319Z,0.30
2023-01-26T09:11:41.310Z,0.50
2023-01-26T09:15:42.943Z,0.40
2023-01-26T09:19:45.042Z,0.40
2023-01-26T09:23:46.906Z,0.50
2023-01-26T09:27:48.630Z,0.50
2023-01-26T09:31:50.389Z,0.60
2023-01-26T09:35:52.068Z,0.50
2023-01-26T09:39:53.715Z,0.60
2023-01-26T09:43:59.808Z,0.60
2023-01-26T09:48:41.059Z,0.60
2023-01-26T09:53:02.712Z,0.50
2023-01-26T09:57:23.012Z,0.40
2023-01-26T10:01:41.911Z,0.40
2023-01-26T10:06:02.879Z,0.50
2023-01-26T10:10:04.917Z,0.50
2023-01-26T10:14:19.203Z,0.70
2023-01-26T10:18:32.421Z,0.80
2023-01-26T10:22:38.474Z,0.90
2023-01-26T10:26:40.548Z,0.90
2023-01-26T10:30:44.389Z,0.90
2023-01-26T10:34:49.299Z,1.00
2023-01-26T10:38:52.441Z,1.00
2023-01-26T10:42:57.355Z,1.00
2023-01-26T10:47:21.232Z,1.00
2023-01-26T10:51:31.564Z,1.00
2023-01-26T10:55:37.127Z,1.10
2023-01-26T10:59:54.055Z,1.20
2023-01-26T11:04:06.584Z,1.20
2023-01-26T11:08:36.187Z,1.30
2023-01-26T11:12:37.906Z,1.20
2023-01-26T11:16:44.271Z,1.30
2023-01-26T11:21:04.047Z,1.30
2023-01-26T11:25:14.842Z,1.40
2023-01-26T11:29:54.737Z,1.50
2023-01-26T11:34:22.336Z,1.50
2023-01-26T11:38:41.825Z,1.60
2023-01-26T11:43:26.960Z,1.60
2023-01-26T11:47:40.534Z,1.70
2023-01-26T11:52:20.232Z,1.70
2023-01-26T11:56:37.234Z,1.60
2023-01-26T12:00:43.940Z,1.50
2023-01-26T12:04:46.822Z,1.50
2023-01-26T12:09:18.834Z,1.60
2023-01-26T12:13:23.418Z,1.60
2023-01-26T12:17:47.995Z,1.60
2023-01-26T12:21:51.999Z,1.70
2023-01-26T12:26:00.108Z,1.70
2023-01-26T12:30:34.015Z,1.60
2023-01-26T12:34:35.923Z,1.60
2023-01-26T12:38:37.572Z,1.70
2023-01-26T12:42:54.558Z,1.70
2023-01-26T12:47:28.720Z,1.80
2023-01-26T12:51:35.651Z,2.00
2023-01-26T12:55:42.744Z,1.90
2023-01-26T12:59:48.509Z,1.90
2023-01-26T13:04:07.786Z,2.00
2023-01-26T13:08:31.440Z,2.00
2023-01-26T13:12:45.009Z,2.00
2023-01-26T13:16:46.640Z,1.80
2023-01-26T13:20:49.859Z,1.70
2023-01-26T13:24:57.449Z,1.70
2023-01-26T13:29:33.175Z,1.80
2023-01-26T13:33:35.126Z,1.70
2023-01-26T13:37:46.427Z,1.70
2023-01-26T13:41:48.350Z,1.70
2023-01-26T13:45:53.177Z,1.80
2023-01-26T13:49:54.893Z,1.80
2023-01-26T13:54:11.603Z,1.70
2023-01-26T13:58:15.509Z,1.60
2023-01-26T14:02:31.218Z,1.60
2023-01-26T14:06:36.033Z,1.60
2023-01-26T14:10:42.501Z,1.60
2023-01-26T14:14:48.219Z,1.60
2023-01-26T14:18:50.150Z,1.70
2023-01-26T14:23:15.513Z,1.60
2023-01-26T14:27:36.562Z,1.60
2023-01-26T14:31:38.310Z,1.60
2023-01-26T14:35:42.275Z,1.60
2023-01-26T14:39:45.784Z,1.70
2023-01-26T14:43:49.540Z,1.70
2023-01-26T14:47:52.927Z,1.70
2023-01-26T14:51:57.759Z,1.90
2023-01-26T14:55:59.622Z,1.80
2023-01-26T15:00:06.627Z,1.80
2023-01-26T15:04:21.398Z,1.90
2023-01-26T15:08:24.703Z,2.00
2023-01-26T15:12:26.692Z,1.90
2023-01-26T15:16:28.360Z,1.90
2023-01-26T15:20:29.909Z,1.90
2023-01-26T15:24:31.686Z,2.00
2023-01-26T15:28:33.620Z,2.00
2023-01-26T15:32:39.582Z,2.00
2023-01-26T15:36:51.109Z,2.10
2023-01-26T15:40:52.770Z,2.10
2023-01-26T15:44:54.848Z,2.20
2023-01-26T15:48:56.582Z,2.20
2023-01-26T15:52:58.265Z,2.30
2023-01-26T15:56:59.943Z,2.30
2023-01-26T16:01:01.716Z,2.40
2023-01-26T16:05:03.495Z,2.40
2023-01-26T16:09:05.285Z,2.40
2023-01-26T16:13:18.634Z,2.40
2023-01-26T16:17:20.308Z,2.40
2023-01-26T16:21:24.781Z,2.30
2023-01-26T16:25:29.466Z,2.20
2023-01-26T16:29:31.522Z,2.20
2023-01-26T16:33:33.284Z,2.20
2023-01-26T16:37:35.106Z,2.20
2023-01-26T16:41:36.786Z,2.20
2023-01-26T16:45:38.605Z,2.20
2023-01-26T16:49:40.326Z,2.20
2023-01-26T16:53:42.095Z,2.20
2023-01-26T16:57:45.695Z,2.30
2023-01-26T17:01:47.462Z,2.30
2023-01-26T17:05:50.539Z,2.30
2023-01-26T17:09:52.238Z,2.30
2023-01-26T17:13:55.992Z,2.40
2023-01-26T17:17:57.832Z,2.40
2023-01-26T17:21:59.658Z,2.50
2023-01-26T17:26:01.271Z,2.50
2023-01-26T17:30:04.643Z,2.50
2023-01-26T17:34:06.416Z,2.50
2023-01-26T17:38:08.080Z,2.50
2023-01-26T17:42:09.791Z,2.40
2023-01-26T17:46:20.531Z,2.40
2023-01-26T17:50:22.334Z,2.40
2023-01-26T17:54:24.255Z,2.40
2023-01-26T17:58:25.954Z,2.30
2023-01-26T18:02:27.795Z,2.20
2023-01-26T18:06:29.791Z,2.30
2023-01-26T18:10:31.479Z,2.30
2023-01-26T18:14:33.230Z,2.40
2023-01-26T18:18:35.531Z,2.40
2023-01-26T18:22:37.261Z,2.30
2023-01-26T18:26:39.788Z,2.50
2023-01-26T18:30:41.879Z,2.50
2023-01-26T18:34:43.569Z,2.40
2023-01-26T18:38:58.656Z,2.50
2023-01-26T18:43:00.421Z,2.50
2023-01-26T18:47:02.136Z,2.60
2023-01-26T18:51:05.013Z,2.50
2023-01-26T18:55:08.492Z,2.60
2023-01-26T18:59:10.729Z,2.60
2023-01-26T19:03:12.394Z,2.60
2023-01-26T19:07:15.227Z,2.60
2023-01-26T19:11:16.938Z,2.50
2023-01-26T19:15:18.696Z,2.50
2023-01-26T19:19:20.780Z,2.50
2023-01-26T19:23:22.455Z,2.60
2023-01-26T19:27:24.147Z,2.60
2023-01-26T19:31:26.780Z,2.60
2023-01-26T19:35:29.605Z,2.60
2023-01-26T19:39:31.306Z,2.70
2023-01-26T19:43:32.992Z,2.70
2023-01-26T19:47:34.641Z,2.70
2023-01-26T19:51:36.533Z,2.70
2023-01-26T19:55:38.183Z,2.60
2023-01-26T19:59:39.863Z,2.60
2023-01-26T20:03:41.571Z,2.60
2023-01-26T20:07:43.368Z,2.70
2023-01-26T20:11:45.079Z,2.60
2023-01-26T20:15:46.871Z,2.70
2023-01-26T20:19:48.569Z,2.70
2023-01-26T20:23:54.821Z,2.70
2023-01-26T20:27:57.177Z,2.60
2023-01-26T20:31:58.957Z,2.70
2023-01-26T20:36:01.237Z,2.70
2023-01-26T20:40:03.982Z,2.70
2023-01-26T20:44:07.247Z,2.70
2023-01-26T20:48:09.047Z,2.70
2023-01-26T20:52:10.734Z,2.70
2023-01-26T20:56:14.003Z,2.60
2023-01-26T21:00:16.070Z,2.70
2023-01-26T21:04:17.777Z,2.60
2023-01-26T21:08:19.528Z,2.70
2023-01-26T21:12:21.159Z,2.70
2023-01-26T21:16:23.336Z,2.60
2023-01-26T21:20:25.005Z,2.60
2023-01-26T21:24:26.682Z,2.70
2023-01-26T21:28:29.135Z,2.70
2023-01-26T21:32:30.920Z,2.60
2023-01-26T21:36:34.029Z,2.60
2023-01-26T21:40:35.691Z,2.60
2023-01-26T21:44:57.323Z,2.70
2023-01-26T21:48:59.211Z,2.60
2023-01-26T21:53:00.986Z,2.60
2023-01-26T21:57:24.825Z,2.60
2023-01-26T22:01:27.287Z,2.60
2023-01-26T22:05:29.085Z,2.70
2023-01-26T22:09:30.868Z,2.70
2023-01-26T22:13:34.565Z,2.70
2023-01-26T22:17:36.289Z,2.70
2023-01-26T22:21:38.640Z,2.70
2023-01-26T22:25:41.421Z,2.70
2023-01-26T22:29:43.166Z,2.60
2023-01-26T22:33:45.026Z,2.60
2023-01-26T22:37:46.661Z,2.60
2023-01-26T22:41:48.346Z,2.60
2023-01-26T22:45:50.121Z,2.50
2023-01-26T22:49:52.412Z,2.60
2023-01-26T22:53:55.625Z,2.60
2023-01-26T22:57:57.792Z,2.70
2023-01-26T23:01:59.542Z,2.70
2023-01-26T23:06:03.488Z,2.70
2023-01-26T23:10:06.234Z,2.80
2023-01-26T23:14:08.020Z,2.80
2023-01-26T23:18:09.913Z,2.90
2023-01-26T23:22:11.714Z,2.80
2023-01-26T23:26:13.775Z,2.90
2023-01-26T23:30:15.629Z,2.90
2023-01-26T23:34:17.378Z,2.80
2023-01-26T23:38:21.160Z,2.80
2023-01-26T23:42:22.857Z,2.90
2023-01-26T23:46:24.633Z,2.90
2023-01-26T23:50:27.316Z,2.90
2023-01-26T23:54:29.089Z,3.00
2023-01-26T23:58:30.771Z,3.00
